createdAt,value
2022-07-25T04:02:05.429Z,98660.88
2022-07-25T04:07:09.534Z,98654.81
2022-07-25T04:12:14.676Z,98657.53
2022-07-25T04:17:21.885Z,98667.56
2022-07-25T04:22:28.454Z,98656.84
2022-07-25T04:27:32.421Z,98668.91
2022-07-25T04:32:37.867Z,98680.66
2022-07-25T04:37:42.031Z,98676.34
2022-07-25T04:42:46.032Z,98674.91
2022-07-25T04:47:51.626Z,98685.84
2022-07-25T04:52:55.881Z,98690.56
2022-07-25T04:58:00.271Z,98690.16
2022-07-25T05:03:08.186Z,98706.84
2022-07-25T05:08:12.295Z,98698.88
2022-07-25T05:13:16.550Z,98707.44
2022-07-25T05:18:22.274Z,98717.38
2022-07-25T05:23:26.428Z,98720.72
2022-07-25T05:28:31.178Z,98723.91
2022-07-25T05:33:37.091Z,98738.97
2022-07-25T05:38:41.302Z,98732.66
2022-07-25T05:43:47.345Z,98730.25
2022-07-25T05:48:52.888Z,98744.28
2022-07-25T05:53:57.069Z,98740.34
2022-07-25T05:59:01.575Z,98729.28
2022-07-25T06:04:07.733Z,98736.66
2022-07-25T06:09:12.042Z,98729.97
2022-07-25T06:14:16.976Z,98727.56
2022-07-25T06:19:23.946Z,98737.59
2022-07-25T06:24:27.917Z,98732.50
2022-07-25T06:29:32.030Z,98737.97
2022-07-25T06:34:37.492Z,98734.44
2022-07-25T06:39:45.681Z,98731.88
2022-07-25T06:44:50.163Z,98746.34
2022-07-25T06:49:55.538Z,98760.88
2022-07-25T06:54:59.559Z,98753.75
2022-07-25T07:00:06.359Z,98758.22
2022-07-25T07:05:12.326Z,98766.75
2022-07-25T07:10:16.801Z,98775.50
2022-07-25T07:15:20.955Z,98768.34
2022-07-25T07:20:26.899Z,98780.34
2022-07-25T07:25:31.130Z,98780.47
2022-07-25T07:31:05.772Z,98792.34
2022-07-25T07:36:01.979Z,98776.44
2022-07-25T07:41:06.521Z,98793.81
2022-07-25T07:46:10.631Z,98798.63
2022-07-25T07:51:16.512Z,98798.69
2022-07-25T07:56:20.965Z,98801.22
2022-07-25T08:01:27.166Z,98803.03
2022-07-25T08:06:33.959Z,98798.06
2022-07-25T08:11:38.503Z,98797.78
2022-07-25T08:16:42.457Z,98814.22
2022-07-25T08:21:48.891Z,98808.31
2022-07-25T08:26:53.026Z,98812.22
2022-07-25T08:31:57.216Z,98809.03
2022-07-25T08:37:03.411Z,98799.84
2022-07-25T08:42:11.084Z,98788.09
2022-07-25T08:47:17.332Z,98795.50
2022-07-25T08:52:24.374Z,98803.16
2022-07-25T08:57:28.766Z,98793.75
2022-07-25T09:02:33.690Z,98794.06
2022-07-25T09:07:41.215Z,98790.19
2022-07-25T09:12:53.739Z,98783.47
2022-07-25T09:17:59.050Z,98784.44
2022-07-25T09:23:07.447Z,98765.97
2022-07-25T09:28:14.080Z,98768.63
2022-07-25T09:33:18.928Z,98765.19
2022-07-25T09:38:26.285Z,98773.50
2022-07-25T09:43:39.910Z,98767.69
2022-07-25T09:48:46.617Z,98765.66
2022-07-25T09:53:52.523Z,98765.44
2022-07-25T09:58:57.895Z,98773.31
2022-07-25T10:04:14.290Z,98765.06
2022-07-25T10:09:20.429Z,98764.38
2022-07-25T10:14:24.764Z,98751.19
2022-07-25T10:19:49.175Z,98753.72
2022-07-25T10:24:57.585Z,98749.09
2022-07-25T10:30:02.787Z,98742.81
2022-07-25T10:35:17.726Z,98734.97
2022-07-25T10:40:31.534Z,98723.03
2022-07-25T10:45:40.688Z,98717.59
2022-07-25T10:50:55.712Z,98715.19
2022-07-25T10:56:06.636Z,98704.69
2022-07-25T11:01:11.279Z,98710.78
2022-07-25T11:06:16.582Z,98705.81
2022-07-25T11:11:22.396Z,98699.03
2022-07-25T11:16:28.973Z,98682.88
2022-07-25T11:21:32.909Z,98687.44
2022-07-25T11:26:47.503Z,98688.81
2022-07-25T11:31:59.486Z,98688.69
2022-07-25T11:37:06.382Z,98690.25
2022-07-25T11:42:14.727Z,98687.66
2022-07-25T11:47:28.206Z,98688.19
2022-07-25T11:52:34.916Z,98685.50
2022-07-25T11:57:44.566Z,98686.06
2022-07-25T12:02:51.036Z,98682.50
2022-07-25T12:07:57.744Z,98679.28
2022-07-25T12:13:04.566Z,98685.03
2022-07-25T12:18:10.908Z,98669.41
2022-07-25T12:23:16.008Z,98662.41
2022-07-25T12:28:21.709Z,98659.31
2022-07-25T12:33:26.096Z,98656.97
2022-07-25T12:38:30.586Z,98651.03
2022-07-25T12:43:36.383Z,98646.66
2022-07-25T12:48:41.078Z,98652.59
2022-07-25T12:53:45.550Z,98648.88
2022-07-25T12:58:52.011Z,98648.34
2022-07-25T13:03:57.810Z,98643.75
2022-07-25T13:09:01.884Z,98642.00
2022-07-25T13:14:08.443Z,98631.09
2022-07-25T13:19:12.670Z,98635.75
2022-07-25T13:24:18.400Z,98636.09
2022-07-25T13:29:24.416Z,98630.06
2022-07-25T13:34:29.887Z,98631.75
2022-07-25T13:39:35.961Z,98633.31
2022-07-25T13:44:41.887Z,98616.78
2022-07-25T13:49:46.137Z,98608.84
2022-07-25T13:54:50.628Z,98599.94
2022-07-25T13:59:56.287Z,98601.63
2022-07-25T14:05:04.050Z,98598.13
2022-07-25T14:10:09.846Z,98595.38
2022-07-25T14:15:16.512Z,98602.94
2022-07-25T14:20:20.994Z,98598.78
2022-07-25T14:25:25.184Z,98607.66
2022-07-25T14:30:31.404Z,98598.50
2022-07-25T14:35:36.361Z,98587.75
2022-07-25T14:40:40.736Z,98579.47
2022-07-25T14:45:46.340Z,98585.09
2022-07-25T14:50:51.071Z,98580.03
2022-07-25T14:55:55.603Z,98576.16
2022-07-25T15:01:01.406Z,98568.16
2022-07-25T15:06:10.329Z,98570.53
2022-07-25T15:11:14.656Z,98564.69
2022-07-25T15:16:21.016Z,98548.56
2022-07-25T15:21:25.602Z,98550.56
2022-07-25T15:26:30.376Z,98552.34
2022-07-25T15:31:36.305Z,98550.97
2022-07-25T15:36:40.789Z,98546.59
2022-07-25T15:41:46.222Z,98561.25
2022-07-25T15:46:52.197Z,98551.78
2022-07-25T15:51:57.258Z,98553.25
2022-07-25T15:57:01.667Z,98553.25
2022-07-25T16:02:10.708Z,98555.72
2022-07-25T16:07:14.948Z,98561.47
2022-07-25T16:12:27.854Z,98564.41
2022-07-25T16:17:34.555Z,98564.00
2022-07-25T16:22:39.872Z,98568.09
2022-07-25T16:27:44.246Z,98573.91
2022-07-25T16:32:51.216Z,98571.91
2022-07-25T16:37:55.871Z,98574.09
2022-07-25T16:43:00.285Z,98571.16
2022-07-25T16:48:08.448Z,98563.94
2022-07-25T16:53:13.522Z,98568.13
2022-07-25T16:58:17.932Z,98570.16
2022-07-25T17:03:23.901Z,98562.41
2022-07-25T17:08:28.494Z,98574.53
2022-07-25T17:13:32.592Z,98582.56
2022-07-25T17:18:39.283Z,98591.03
2022-07-25T17:23:43.561Z,98598.38
2022-07-25T17:28:47.990Z,98598.41
2022-07-25T17:33:53.782Z,98601.53
2022-07-25T17:38:58.171Z,98608.44
2022-07-25T17:44:02.459Z,98614.63
2022-07-25T17:49:11.246Z,98615.41
2022-07-25T17:54:15.669Z,98613.88
2022-07-25T17:59:20.920Z,98623.59
2022-07-25T18:04:26.815Z,98632.69
2022-07-25T18:09:31.615Z,98635.66
2022-07-25T18:14:37.682Z,98636.06
2022-07-25T18:19:45.453Z,98635.13
2022-07-25T18:24:49.811Z,98639.59
2022-07-25T18:29:54.282Z,98639.16
2022-07-25T18:35:01.002Z,98643.81
2022-07-25T18:40:06.761Z,98646.47
2022-07-25T18:45:13.458Z,98659.06
2022-07-25T18:50:21.015Z,98653.03
2022-07-25T18:55:25.345Z,98654.56
2022-07-25T19:00:29.940Z,98654.75
2022-07-25T19:05:35.741Z,98646.50
2022-07-25T19:10:43.237Z,98657.03
2022-07-25T19:15:50.199Z,98653.81
2022-07-25T19:20:57.258Z,98660.94
2022-07-25T19:26:03.129Z,98659.16
2022-07-25T19:31:09.026Z,98658.53
2022-07-25T19:36:15.423Z,98655.88
2022-07-25T19:41:19.665Z,98664.47
2022-07-25T19:46:25.517Z,98664.84
2022-07-25T19:51:32.671Z,98680.47
2022-07-25T19:56:37.466Z,98678.38
2022-07-25T20:01:46.042Z,98675.28
2022-07-25T20:06:52.526Z,98669.81
2022-07-25T20:11:57.731Z,98676.16
2022-07-25T20:17:03.553Z,98673.34
2022-07-25T20:22:09.570Z,98678.22
2022-07-25T20:27:13.957Z,98673.84
2022-07-25T20:32:18.415Z,98670.06
2022-07-25T20:37:24.488Z,98670.25
2022-07-25T20:42:29.595Z,98676.41
2022-07-25T20:47:34.517Z,98671.81
2022-07-25T20:52:41.211Z,98661.97
2022-07-25T20:57:50.357Z,98664.78
2022-07-25T21:02:56.466Z,98666.25
2022-07-25T21:08:02.350Z,98661.53
2022-07-25T21:13:06.774Z,98661.03
2022-07-25T21:18:10.916Z,98649.38
2022-07-25T21:23:18.353Z,98649.09
2022-07-25T21:28:22.827Z,98645.94
2022-07-25T21:33:30.289Z,98657.47
2022-07-25T21:38:37.498Z,98657.19
2022-07-25T21:43:42.629Z,98653.28
2022-07-25T21:49:04.654Z,98648.66
2022-07-25T21:54:13.532Z,98652.59
2022-07-25T21:59:18.254Z,98650.69
2022-07-25T22:04:25.345Z,98652.84
2022-07-25T22:09:31.356Z,98653.91
2022-07-25T22:14:35.732Z,98646.91
2022-07-25T22:19:42.286Z,98632.56
2022-07-25T22:24:47.578Z,98632.72
2022-07-25T22:29:51.566Z,98637.81
2022-07-25T22:34:55.582Z,98645.09
2022-07-25T22:40:01.753Z,98634.69
2022-07-25T22:45:08.537Z,98626.34
2022-07-25T22:50:12.651Z,98632.34
2022-07-25T22:55:18.798Z,98636.28
2022-07-25T23:00:23.050Z,98642.97
2022-07-25T23:05:26.916Z,98631.63
2022-07-25T23:10:32.384Z,98630.56
2022-07-25T23:15:49.928Z,98624.41
2022-07-25T23:20:55.546Z,98616.94
2022-07-25T23:26:01.058Z,98617.69
2022-07-25T23:31:05.587Z,98599.06
2022-07-25T23:36:10.141Z,98601.53
2022-07-25T23:41:15.535Z,98585.59
2022-07-25T23:46:21.516Z,98588.00
2022-07-25T23:51:32.407Z,98586.69
2022-07-25T23:56:37.969Z,98587.63
